Svitlovods'K, Ukraine
Current Conditions -  °F | °C
As of 3:30 AM on Tuesday 25 Nov 2014 (Local Time) from UKDR Reporting Station
Overcast Overcast  
Wind Chill: 11°   Ceiling: 1500
Heat Index: 23°   Visibility: 6mi
Dew Point: 19°   Wind: 13mph
Humidity: 86%   Direction: 70°ENE
Pressure: 30.5"   Gusts: NA
Location:  49.05°N, 33.25°E
Report Text: UKDR 250030Z 07006MPS 040V120 9999 OVC015 M05/M07 Q1033 3609//64 TEMPO 3100 BR OVC003
Loading
Personal Weather Stations






























Interactive Weather Map New forecast layout! Learn more

10-Day Weather Forecast

Advertisements
Track Severe Weather on mobile